createdAt,value
2017-11-24T00:00:01.543Z,999.99
2017-11-24T00:00:42.090Z,1000.01
2017-11-24T00:01:22.651Z,999.98
2017-11-24T00:02:03.228Z,999.97
2017-11-24T00:02:43.898Z,999.94
2017-11-24T00:03:24.439Z,999.97
2017-11-24T00:04:04.950Z,999.95
2017-11-24T00:04:45.499Z,999.91
2017-11-24T00:05:26.038Z,999.96
2017-11-24T00:06:06.611Z,999.95
2017-11-24T00:06:47.144Z,999.97
2017-11-24T00:07:27.714Z,999.98
2017-11-24T00:08:08.235Z,999.96
2017-11-24T00:08:48.827Z,999.95
2017-11-24T00:09:29.354Z,999.92
2017-11-24T00:10:09.896Z,999.88
2017-11-24T00:10:50.445Z,999.93
2017-11-24T00:11:30.949Z,999.9
2017-11-24T00:12:11.513Z,999.95
2017-11-24T00:12:52.044Z,999.97
2017-11-24T00:13:32.588Z,999.94
2017-11-24T00:14:13.128Z,999.95
2017-11-24T00:14:53.712Z,999.91
2017-11-24T00:15:34.228Z,999.92
2017-11-24T00:16:14.774Z,999.88
2017-11-24T00:16:55.326Z,999.87
2017-11-24T00:17:35.854Z,999.92
2017-11-24T00:18:16.433Z,999.86
2017-11-24T00:18:57.009Z,999.87
2017-11-24T00:19:37.509Z,999.92
2017-11-24T00:20:18.012Z,999.88
2017-11-24T00:20:58.604Z,999.88
2017-11-24T00:21:39.162Z,999.92
2017-11-24T00:22:19.755Z,999.87
2017-11-24T00:23:00.339Z,999.91
2017-11-24T00:23:40.876Z,999.87
2017-11-24T00:24:21.424Z,999.9
2017-11-24T00:25:02.003Z,999.89
2017-11-24T00:25:42.479Z,999.9
2017-11-24T00:26:23.020Z,999.91
2017-11-24T00:27:03.602Z,999.87
2017-11-24T00:27:44.105Z,999.87
2017-11-24T00:28:24.704Z,999.88
2017-11-24T00:29:05.207Z,999.87
2017-11-24T00:29:45.773Z,999.87
2017-11-24T00:30:26.338Z,999.89
2017-11-24T00:31:06.956Z,999.88
2017-11-24T00:31:47.531Z,999.88
2017-11-24T00:32:28.065Z,999.89
2017-11-24T00:33:08.569Z,999.84
2017-11-24T00:33:49.097Z,999.89
2017-11-24T00:34:29.680Z,999.82
2017-11-24T00:35:10.238Z,999.81
2017-11-24T00:35:50.729Z,999.83
2017-11-24T00:36:31.287Z,999.89
2017-11-24T00:37:11.818Z,999.84
2017-11-24T00:37:52.355Z,999.83
2017-11-24T00:38:32.894Z,999.85
2017-11-24T00:39:13.571Z,999.88
2017-11-24T00:39:54.205Z,999.83
2017-11-24T00:40:34.678Z,999.85
2017-11-24T00:41:15.420Z,999.88
2017-11-24T00:43:28.905Z,999.85
2017-11-24T00:44:09.443Z,999.8
2017-11-24T00:44:50.028Z,999.8
2017-11-24T00:45:30.556Z,999.84
2017-11-24T00:46:11.101Z,999.8
2017-11-24T00:46:51.612Z,999.78
2017-11-24T00:47:32.149Z,999.83
2017-11-24T00:48:12.685Z,999.82
2017-11-24T00:48:53.168Z,999.8
2017-11-24T00:49:33.716Z,999.8
2017-11-24T00:50:14.231Z,999.78
2017-11-24T00:50:54.778Z,999.86
2017-11-24T00:51:35.355Z,999.84
2017-11-24T00:52:15.832Z,999.83
2017-11-24T00:52:56.370Z,999.84
2017-11-24T00:53:36.892Z,999.79
2017-11-24T00:54:17.397Z,999.82
2017-11-24T00:54:57.970Z,999.83
2017-11-24T00:55:38.464Z,999.87
2017-11-24T00:56:19.022Z,999.8
2017-11-24T00:56:59.563Z,999.82
2017-11-24T00:57:40.124Z,999.85
2017-11-24T00:58:20.640Z,999.88
2017-11-24T00:59:01.207Z,999.88
2017-11-24T00:59:41.736Z,999.84
2017-11-24T01:00:22.244Z,999.83
2017-11-24T01:01:02.850Z,999.85
2017-11-24T01:01:43.386Z,999.83
2017-11-24T01:02:23.942Z,999.83
2017-11-24T01:03:04.486Z,999.8
2017-11-24T01:03:45.024Z,999.82
2017-11-24T01:04:25.589Z,999.88
2017-11-24T01:05:06.213Z,999.87
2017-11-24T01:05:46.696Z,999.84
2017-11-24T01:06:27.241Z,999.85
2017-11-24T01:07:07.764Z,999.92
2017-11-24T01:07:48.321Z,999.88
2017-11-24T01:08:28.866Z,999.84
2017-11-24T01:09:09.448Z,999.83
2017-11-24T01:09:49.949Z,999.83
2017-11-24T01:10:30.501Z,999.81
2017-11-24T01:11:11.063Z,999.79
2017-11-24T01:11:51.595Z,999.82
2017-11-24T01:12:32.119Z,999.81
2017-11-24T01:13:12.611Z,999.82
2017-11-24T01:13:53.144Z,999.8
2017-11-24T01:14:33.689Z,999.86
2017-11-24T01:15:14.253Z,999.82
2017-11-24T01:15:54.823Z,999.89
2017-11-24T01:16:35.406Z,999.85
2017-11-24T01:17:15.870Z,999.85
2017-11-24T01:17:56.423Z,999.84
2017-11-24T01:18:36.989Z,999.84
2017-11-24T01:19:17.544Z,999.85
2017-11-24T01:19:58.079Z,999.82
2017-11-24T01:20:38.613Z,999.83
2017-11-24T01:21:19.225Z,999.82
2017-11-24T01:21:59.665Z,999.81
2017-11-24T01:22:40.203Z,999.86
2017-11-24T01:23:20.777Z,999.82
2017-11-24T01:24:01.275Z,999.86
2017-11-24T01:24:41.803Z,999.8
2017-11-24T01:25:22.409Z,999.78
2017-11-24T01:26:02.973Z,999.81
2017-11-24T01:26:43.481Z,999.85
2017-11-24T01:27:24.090Z,999.8
2017-11-24T01:28:04.610Z,999.84
2017-11-24T01:28:45.197Z,999.79
2017-11-24T01:29:25.746Z,999.82
2017-11-24T01:30:06.264Z,999.78
2017-11-24T01:30:46.951Z,999.79
2017-11-24T01:31:27.460Z,999.77
2017-11-24T01:32:08.018Z,999.83
2017-11-24T01:32:48.610Z,999.83
2017-11-24T01:33:29.212Z,999.81
2017-11-24T01:34:09.783Z,999.78
2017-11-24T01:34:50.297Z,999.8
2017-11-24T01:35:30.862Z,999.8
2017-11-24T01:36:11.424Z,999.8
2017-11-24T01:36:51.950Z,999.76
2017-11-24T01:37:32.488Z,999.76
2017-11-24T01:38:13.062Z,999.78
2017-11-24T01:38:53.598Z,999.77
2017-11-24T01:39:34.169Z,999.75
2017-11-24T01:40:14.686Z,999.75
2017-11-24T01:40:55.298Z,999.81
2017-11-24T01:41:35.764Z,999.78
2017-11-24T01:42:16.367Z,999.77
2017-11-24T01:42:56.843Z,999.79
2017-11-24T01:43:37.427Z,999.81
2017-11-24T01:44:18.058Z,999.8
2017-11-24T01:44:58.552Z,999.8
2017-11-24T01:45:39.064Z,999.77
2017-11-24T01:46:19.647Z,999.74
2017-11-24T01:47:00.151Z,999.75
2017-11-24T01:47:40.703Z,999.71
2017-11-24T01:48:21.255Z,999.76
2017-11-24T01:49:01.806Z,999.81
2017-11-24T01:49:42.364Z,999.77
2017-11-24T01:50:22.849Z,999.73
2017-11-24T01:51:03.448Z,999.74
2017-11-24T01:51:43.987Z,999.71
2017-11-24T01:52:24.523Z,999.65
2017-11-24T01:53:05.094Z,999.67
2017-11-24T01:53:45.625Z,999.68
2017-11-24T01:54:26.084Z,999.62
2017-11-24T01:55:06.651Z,999.63
2017-11-24T01:55:47.193Z,999.6
2017-11-24T01:56:27.779Z,999.65
2017-11-24T01:57:08.251Z,999.58
2017-11-24T01:57:48.817Z,999.6
2017-11-24T01:58:29.339Z,999.59
2017-11-24T01:59:10.012Z,999.63
2017-11-24T01:59:50.621Z,999.57
2017-11-24T02:00:31.170Z,999.63
2017-11-24T02:01:11.636Z,999.61
2017-11-24T02:01:52.167Z,999.58
2017-11-24T02:02:32.699Z,999.6
2017-11-24T02:03:13.294Z,999.59
2017-11-24T02:03:53.793Z,999.6
2017-11-24T02:04:34.383Z,999.64
2017-11-24T02:05:14.928Z,999.66
2017-11-24T02:05:55.459Z,999.62
2017-11-24T02:06:35.992Z,999.62
2017-11-24T02:07:16.479Z,999.68
2017-11-24T02:07:57.020Z,999.63
2017-11-24T02:08:37.496Z,999.67
2017-11-24T02:09:18.092Z,999.69
2017-11-24T02:09:58.654Z,999.68
2017-11-24T02:10:39.248Z,999.61
2017-11-24T02:11:19.741Z,999.61
2017-11-24T02:12:00.275Z,999.57
2017-11-24T02:12:40.845Z,999.56
2017-11-24T02:13:21.420Z,999.59
2017-11-24T02:14:01.889Z,999.59
2017-11-24T02:14:42.484Z,999.57
2017-11-24T02:15:22.969Z,999.56
2017-11-24T02:16:03.506Z,999.56
2017-11-24T02:16:44.013Z,999.53
2017-11-24T02:17:24.626Z,999.54
2017-11-24T02:18:05.153Z,999.47
2017-11-24T02:18:45.681Z,999.53
2017-11-24T02:19:26.236Z,999.46
2017-11-24T02:20:06.731Z,999.45
2017-11-24T02:20:47.333Z,999.45
2017-11-24T02:21:27.905Z,999.43
2017-11-24T02:22:08.432Z,999.4
2017-11-24T02:22:48.984Z,999.42
2017-11-24T02:23:29.605Z,999.37
2017-11-24T02:24:10.186Z,999.41
2017-11-24T02:24:50.656Z,999.35
2017-11-24T02:25:31.226Z,999.35
2017-11-24T02:26:11.717Z,999.35
2017-11-24T02:26:52.284Z,999.29
2017-11-24T02:27:32.853Z,999.31
2017-11-24T02:28:13.423Z,999.27
2017-11-24T02:28:53.915Z,999.3
2017-11-24T02:29:34.443Z,999.35
2017-11-24T02:30:14.940Z,999.33
2017-11-24T02:30:55.519Z,999.3
2017-11-24T02:31:36.168Z,999.31
2017-11-24T02:32:16.656Z,999.35
2017-11-24T02:32:57.195Z,999.28
2017-11-24T02:33:37.730Z,999.26
2017-11-24T02:34:18.294Z,999.24
2017-11-24T02:34:58.804Z,999.29
2017-11-24T02:35:39.334Z,999.26
2017-11-24T02:36:19.940Z,999.23
2017-11-24T02:37:00.714Z,999.2
2017-11-24T02:37:41.200Z,999.18
2017-11-24T02:38:21.772Z,999.19
2017-11-24T02:39:02.308Z,999.18
2017-11-24T02:39:42.840Z,999.21
2017-11-24T02:40:23.410Z,999.18
2017-11-24T02:41:03.930Z,999.17
2017-11-24T02:41:44.498Z,999.18
2017-11-24T02:42:25.065Z,999.18
2017-11-24T02:43:05.614Z,999.21
2017-11-24T02:43:46.182Z,999.19
2017-11-24T02:44:26.736Z,999.22
2017-11-24T02:45:07.278Z,999.2
2017-11-24T02:45:47.842Z,999.2
2017-11-24T02:46:28.353Z,999.2
2017-11-24T02:47:08.898Z,999.19
2017-11-24T02:47:49.521Z,999.22
2017-11-24T02:48:30.017Z,999.2
2017-11-24T02:49:10.595Z,999.25
2017-11-24T02:49:51.098Z,999.2
2017-11-24T02:50:31.675Z,999.2
2017-11-24T02:51:12.204Z,999.17
2017-11-24T02:51:52.733Z,999.16
2017-11-24T02:52:33.287Z,999.14
2017-11-24T02:53:13.836Z,999.14
2017-11-24T02:53:54.367Z,999.12
2017-11-24T02:54:34.840Z,999.13
2017-11-24T02:55:15.400Z,999.11
2017-11-24T02:55:55.956Z,999.09
2017-11-24T02:56:36.511Z,999.06
2017-11-24T02:57:17.046Z,999.06
2017-11-24T02:57:57.587Z,999.08
2017-11-24T02:58:38.133Z,999.09
2017-11-24T02:59:18.689Z,999.07
2017-11-24T02:59:59.241Z,999.06
2017-11-24T03:00:39.755Z,999.08
2017-11-24T03:01:20.302Z,999.07
2017-11-24T03:02:00.800Z,999.03
2017-11-24T03:02:41.532Z,999.09
2017-11-24T03:03:22.245Z,999.07
2017-11-24T03:04:02.826Z,999.09
2017-11-24T03:04:43.335Z,999.1
2017-11-24T03:05:23.862Z,999.09
2017-11-24T03:06:04.407Z,999.08
2017-11-24T03:06:44.925Z,999.08
2017-11-24T03:07:25.504Z,999.07
2017-11-24T03:08:05.977Z,999.06
2017-11-24T03:08:46.567Z,999.13
2017-11-24T03:09:27.079Z,999.1
2017-11-24T03:10:07.637Z,999.17
2017-11-24T03:10:48.184Z,999.09
2017-11-24T03:11:28.748Z,999.13
2017-11-24T03:12:09.214Z,999.13
2017-11-24T03:12:49.807Z,999.1
2017-11-24T03:13:30.361Z,999.09
2017-11-24T03:14:10.912Z,999.07
2017-11-24T03:14:51.469Z,999.04
2017-11-24T03:15:32.164Z,999.04
2017-11-24T03:16:12.613Z,999.04
2017-11-24T03:16:53.166Z,999.05
2017-11-24T03:17:33.782Z,999.03
2017-11-24T03:18:14.283Z,999.04
2017-11-24T03:18:55.005Z,998.99
2017-11-24T03:19:35.549Z,998.99
2017-11-24T03:20:16.155Z,998.97
2017-11-24T03:20:56.717Z,998.96
2017-11-24T03:21:37.264Z,998.91
2017-11-24T03:22:17.879Z,998.89
2017-11-24T03:22:58.376Z,998.85
2017-11-24T03:23:38.933Z,998.83
2017-11-24T03:24:19.535Z,998.85
2017-11-24T03:25:00.073Z,998.82
2017-11-24T03:25:40.584Z,998.85
2017-11-24T03:26:21.143Z,998.83
2017-11-24T03:27:01.837Z,998.86
2017-11-24T03:27:42.346Z,998.81
2017-11-24T03:28:22.890Z,998.85
2017-11-24T03:29:03.426Z,998.81
2017-11-24T03:29:43.969Z,998.82
2017-11-24T03:30:24.494Z,998.84
2017-11-24T03:31:05.009Z,998.8
2017-11-24T03:31:45.573Z,998.82
2017-11-24T03:32:26.086Z,998.81
2017-11-24T03:33:06.662Z,998.8
2017-11-24T03:33:47.251Z,998.84
2017-11-24T03:34:27.797Z,998.89
2017-11-24T03:35:08.313Z,998.8
2017-11-24T03:35:48.852Z,998.87
2017-11-24T03:36:29.546Z,998.83
2017-11-24T03:37:10.064Z,998.78
2017-11-24T03:37:50.621Z,998.81
2017-11-24T03:38:31.159Z,998.81
2017-11-24T03:39:11.725Z,998.78
2017-11-24T03:39:52.252Z,998.83
2017-11-24T03:40:32.731Z,998.83
2017-11-24T03:41:13.280Z,998.83
2017-11-24T03:41:53.795Z,998.79
2017-11-24T03:42:34.347Z,998.87
2017-11-24T03:43:14.923Z,998.89
2017-11-24T03:43:55.478Z,998.9
2017-11-24T03:44:36.015Z,998.91
2017-11-24T03:45:16.549Z,998.95
2017-11-24T03:45:57.078Z,998.94
2017-11-24T03:46:37.591Z,998.93
2017-11-24T03:47:18.197Z,998.9
2017-11-24T03:47:58.726Z,998.9
2017-11-24T03:48:39.296Z,998.9
2017-11-24T03:49:19.832Z,998.93
2017-11-24T03:50:00.323Z,998.89
2017-11-24T03:50:40.883Z,998.9
2017-11-24T03:51:21.478Z,998.85
2017-11-24T03:52:02.095Z,998.87
2017-11-24T03:52:42.615Z,998.85
2017-11-24T03:53:23.141Z,998.9
2017-11-24T03:54:03.699Z,998.93
2017-11-24T03:54:44.232Z,998.87
2017-11-24T03:55:24.739Z,998.9
2017-11-24T03:56:05.274Z,998.89
2017-11-24T03:56:45.852Z,998.87
2017-11-24T03:57:26.363Z,998.88
2017-11-24T03:58:06.911Z,998.87
2017-11-24T03:58:47.442Z,998.89
2017-11-24T03:59:27.986Z,998.88
2017-11-24T04:00:08.533Z,998.89
2017-11-24T04:00:49.112Z,998.87
2017-11-24T04:01:29.596Z,998.85
2017-11-24T04:02:10.201Z,998.83
2017-11-24T04:02:50.729Z,998.83
2017-11-24T04:03:31.255Z,998.84
2017-11-24T04:04:11.845Z,998.8
2017-11-24T04:04:52.351Z,998.79
2017-11-24T04:05:32.925Z,998.78
2017-11-24T04:06:13.493Z,998.74
2017-11-24T04:06:54.006Z,998.76
2017-11-24T04:07:34.683Z,998.78
2017-11-24T04:08:15.190Z,998.72
2017-11-24T04:08:55.737Z,998.72
2017-11-24T04:09:36.285Z,998.75
2017-11-24T04:10:16.847Z,998.71
2017-11-24T04:10:57.424Z,998.72
2017-11-24T04:11:37.890Z,998.65
2017-11-24T04:12:18.475Z,998.68
2017-11-24T04:12:59.040Z,998.66
2017-11-24T04:13:39.566Z,998.74
2017-11-24T04:14:20.148Z,998.75
2017-11-24T04:15:00.713Z,998.72
2017-11-24T04:15:41.325Z,998.7
2017-11-24T04:16:21.885Z,998.76
2017-11-24T04:17:02.410Z,998.77
2017-11-24T04:17:42.964Z,998.75
2017-11-24T04:18:23.511Z,998.77
2017-11-24T04:19:04.035Z,998.74
2017-11-24T04:19:44.569Z,998.75
2017-11-24T04:20:25.118Z,998.7
2017-11-24T04:21:05.717Z,998.72
2017-11-24T04:21:46.257Z,998.69
2017-11-24T04:22:26.739Z,998.72
2017-11-24T04:23:07.335Z,998.67
2017-11-24T04:23:47.864Z,998.65
2017-11-24T04:24:28.410Z,998.66
2017-11-24T04:25:08.940Z,998.69
2017-11-24T04:25:49.432Z,998.65
2017-11-24T04:26:29.956Z,998.62
2017-11-24T04:27:10.515Z,998.6
2017-11-24T04:27:51.114Z,998.57
2017-11-24T04:28:31.641Z,998.59
2017-11-24T04:29:12.215Z,998.55
2017-11-24T04:29:52.668Z,998.57
2017-11-24T04:30:33.240Z,998.56
2017-11-24T04:31:13.724Z,998.55
2017-11-24T04:31:54.323Z,998.56
2017-11-24T04:32:34.851Z,998.53
2017-11-24T04:33:15.354Z,998.53
2017-11-24T04:33:55.921Z,998.53
2017-11-24T04:34:36.482Z,998.53
2017-11-24T04:35:17.011Z,998.54
2017-11-24T04:35:57.532Z,998.6
2017-11-24T04:36:38.087Z,998.54
2017-11-24T04:37:18.635Z,998.57
2017-11-24T04:37:59.168Z,998.56
2017-11-24T04:38:39.742Z,998.53
2017-11-24T04:39:20.304Z,998.58
2017-11-24T04:40:00.881Z,998.51
2017-11-24T04:40:41.486Z,998.52
2017-11-24T04:41:22.096Z,998.49
2017-11-24T04:42:02.633Z,998.44
2017-11-24T04:42:43.236Z,998.44
2017-11-24T04:43:23.776Z,998.43
2017-11-24T04:44:04.384Z,998.39
2017-11-24T04:44:44.876Z,998.34
2017-11-24T04:45:25.392Z,998.36
2017-11-24T04:46:06.038Z,998.37
2017-11-24T04:46:46.579Z,998.38
2017-11-24T04:47:27.314Z,998.38
2017-11-24T04:48:07.856Z,998.37
2017-11-24T04:48:48.410Z,998.35
2017-11-24T04:49:29.012Z,998.29
2017-11-24T04:50:09.485Z,998.3
2017-11-24T04:50:50.062Z,998.25
2017-11-24T04:51:30.628Z,998.25
2017-11-24T04:52:11.149Z,998.22
2017-11-24T04:52:51.696Z,998.2
2017-11-24T04:53:32.289Z,998.22
2017-11-24T04:54:12.786Z,998.24
2017-11-24T04:54:53.339Z,998.18
2017-11-24T04:55:33.851Z,998.25
2017-11-24T04:56:14.404Z,998.27
2017-11-24T04:56:54.983Z,998.3
2017-11-24T04:57:35.510Z,998.33
2017-11-24T04:58:16.102Z,998.35
2017-11-24T04:58:56.810Z,998.29
2017-11-24T04:59:37.350Z,998.29
2017-11-24T05:00:17.884Z,998.32
2017-11-24T05:00:58.445Z,998.28
2017-11-24T05:01:38.949Z,998.34
2017-11-24T05:02:19.564Z,998.28
2017-11-24T05:03:00.122Z,998.34
2017-11-24T05:03:40.667Z,998.33
2017-11-24T05:04:21.218Z,998.29
2017-11-24T05:05:01.841Z,998.31
2017-11-24T05:05:42.381Z,998.32
2017-11-24T05:06:22.927Z,998.33
2017-11-24T05:07:04.238Z,998.33
2017-11-24T05:07:44.820Z,998.38
2017-11-24T05:08:25.415Z,998.35
2017-11-24T05:09:05.971Z,998.4
2017-11-24T05:09:46.508Z,998.4
2017-11-24T05:10:27.161Z,998.41
2017-11-24T05:11:07.636Z,998.34
2017-11-24T05:11:48.433Z,998.44
2017-11-24T05:12:28.933Z,998.48
2017-11-24T05:13:09.483Z,998.41
2017-11-24T05:13:50.022Z,998.41
2017-11-24T05:14:30.544Z,998.43
2017-11-24T05:15:11.091Z,998.41
2017-11-24T05:15:51.662Z,998.42
2017-11-24T05:16:32.155Z,998.4
2017-11-24T05:17:12.710Z,998.4
2017-11-24T05:17:53.214Z,998.38
2017-11-24T05:18:33.806Z,998.37
2017-11-24T05:19:14.308Z,998.33
2017-11-24T05:19:55.092Z,998.31
2017-11-24T05:20:35.669Z,998.27
2017-11-24T05:21:16.180Z,998.26
2017-11-24T05:21:57.061Z,998.26
2017-11-24T05:22:37.662Z,998.25
2017-11-24T05:23:18.223Z,998.21
2017-11-24T05:23:58.772Z,998.22
2017-11-24T05:24:39.291Z,998.21
2017-11-24T05:25:19.963Z,998.24
2017-11-24T05:26:00.530Z,998.26
2017-11-24T05:26:41.063Z,998.27
2017-11-24T05:27:21.582Z,998.28
2017-11-24T05:28:02.202Z,998.3
2017-11-24T05:28:42.728Z,998.26
2017-11-24T05:29:23.284Z,998.27
2017-11-24T05:30:03.860Z,998.3
2017-11-24T05:30:44.481Z,998.33
2017-11-24T05:31:24.951Z,998.3
2017-11-24T05:32:05.487Z,998.32
2017-11-24T05:32:46.080Z,998.32
2017-11-24T05:33:26.610Z,998.32
2017-11-24T05:34:07.204Z,998.36
2017-11-24T05:34:47.758Z,998.39
2017-11-24T05:35:28.437Z,998.38
2017-11-24T05:36:08.982Z,998.43
2017-11-24T05:36:49.510Z,998.4
2017-11-24T05:37:30.066Z,998.43
2017-11-24T05:38:10.611Z,998.42
2017-11-24T05:38:51.135Z,998.44
2017-11-24T05:39:31.650Z,998.43
2017-11-24T05:40:12.174Z,998.4
2017-11-24T05:40:52.734Z,998.39
2017-11-24T05:41:33.234Z,998.4
2017-11-24T05:42:13.779Z,998.37
2017-11-24T05:42:54.985Z,998.37
2017-11-24T05:43:35.495Z,998.41
2017-11-24T05:44:16.068Z,998.4
2017-11-24T05:44:56.601Z,998.38
2017-11-24T05:45:37.150Z,998.39
2017-11-24T05:46:17.711Z,998.43
2017-11-24T05:46:58.242Z,998.4
2017-11-24T05:47:38.858Z,998.45
2017-11-24T05:48:19.548Z,998.4
2017-11-24T05:49:00.113Z,998.4
2017-11-24T05:49:40.664Z,998.42
2017-11-24T05:50:21.171Z,998.47
2017-11-24T05:51:01.764Z,998.44
2017-11-24T05:51:42.360Z,998.49
2017-11-24T05:52:22.880Z,998.46
2017-11-24T05:53:03.390Z,998.51
2017-11-24T05:53:43.999Z,998.48
2017-11-24T05:54:24.575Z,998.47
2017-11-24T05:55:05.147Z,998.51
2017-11-24T05:55:45.658Z,998.53
2017-11-24T05:56:26.176Z,998.55
2017-11-24T05:57:06.788Z,998.55
2017-11-24T05:57:47.396Z,998.56
2017-11-24T05:58:27.854Z,998.55
2017-11-24T05:59:08.404Z,998.53
2017-11-24T05:59:48.920Z,998.57
2017-11-24T06:00:29.486Z,998.58
2017-11-24T06:01:10.053Z,998.61
2017-11-24T06:01:50.594Z,998.59
2017-11-24T06:02:31.230Z,998.6
2017-11-24T06:03:11.728Z,998.57
2017-11-24T06:03:52.298Z,998.52
2017-11-24T06:04:32.874Z,998.5
2017-11-24T06:05:13.671Z,998.48
2017-11-24T06:05:54.497Z,998.48
2017-11-24T06:06:35.119Z,998.5
2017-11-24T06:07:15.735Z,998.49
2017-11-24T06:07:56.198Z,998.43
2017-11-24T06:08:36.756Z,998.44
2017-11-24T06:09:17.304Z,998.39
2017-11-24T06:09:57.821Z,998.42
2017-11-24T06:10:38.436Z,998.44
2017-11-24T06:11:19.018Z,998.51
2017-11-24T06:11:59.532Z,998.52
2017-11-24T06:12:40.068Z,998.54
2017-11-24T06:13:20.587Z,998.5
2017-11-24T06:14:01.144Z,998.5
2017-11-24T06:14:41.679Z,998.52
2017-11-24T06:15:22.206Z,998.46
2017-11-24T06:16:02.812Z,998.43
2017-11-24T06:16:43.314Z,998.38
2017-11-24T06:17:23.802Z,998.44
2017-11-24T06:18:04.349Z,998.46
2017-11-24T06:18:44.907Z,998.44
2017-11-24T06:19:25.455Z,998.47
2017-11-24T06:20:05.989Z,998.53
2017-11-24T06:20:46.564Z,998.49
2017-11-24T06:21:27.132Z,998.48
2017-11-24T06:22:07.676Z,998.45
2017-11-24T06:22:48.338Z,998.47
2017-11-24T06:23:28.878Z,998.49
2017-11-24T06:24:09.343Z,998.46
2017-11-24T06:24:50.097Z,998.48
2017-11-24T06:25:30.760Z,998.46
2017-11-24T06:26:11.242Z,998.4
2017-11-24T06:26:51.760Z,998.45
2017-11-24T06:27:32.321Z,998.42
2017-11-24T06:28:12.836Z,998.44
2017-11-24T06:28:53.401Z,998.4
2017-11-24T06:29:33.957Z,998.36
2017-11-24T06:30:14.512Z,998.39
2017-11-24T06:30:55.051Z,998.4
2017-11-24T06:31:35.682Z,998.4
2017-11-24T06:32:16.199Z,998.37
2017-11-24T06:32:56.686Z,998.38
2017-11-24T06:33:37.273Z,998.37
2017-11-24T06:34:17.863Z,998.37
2017-11-24T06:34:58.438Z,998.37
2017-11-24T06:35:38.968Z,998.35
2017-11-24T06:36:19.460Z,998.39
2017-11-24T06:37:00.005Z,998.39
2017-11-24T06:37:40.671Z,998.34
2017-11-24T06:38:21.136Z,998.36
2017-11-24T06:39:01.663Z,998.3
2017-11-24T06:39:42.239Z,998.28
2017-11-24T06:40:22.816Z,998.3
2017-11-24T06:41:03.338Z,998.26
2017-11-24T06:41:43.875Z,998.3
2017-11-24T06:42:24.533Z,998.26
2017-11-24T06:43:04.987Z,998.31
2017-11-24T06:43:45.495Z,998.33
2017-11-24T06:44:26.040Z,998.22
2017-11-24T06:45:06.625Z,998.29
2017-11-24T06:45:47.070Z,998.31
2017-11-24T06:46:27.700Z,998.23
2017-11-24T06:47:08.300Z,998.18
2017-11-24T06:47:48.861Z,998.22
2017-11-24T06:48:29.515Z,998.19
2017-11-24T06:49:10.280Z,998.28
2017-11-24T06:49:50.768Z,998.28
2017-11-24T06:50:34.086Z,998.31
2017-11-24T06:51:14.641Z,998.25
2017-11-24T06:51:55.201Z,998.3
2017-11-24T06:52:36.058Z,998.27
2017-11-24T06:53:16.640Z,998.3
2017-11-24T06:54:00.127Z,998.29
2017-11-24T06:54:40.729Z,998.32
2017-11-24T06:55:21.232Z,998.31
2017-11-24T06:56:01.979Z,998.34
2017-11-24T06:56:42.579Z,998.35
2017-11-24T06:57:23.184Z,998.33
2017-11-24T06:58:03.736Z,998.33
2017-11-24T06:58:44.244Z,998.35
2017-11-24T06:59:24.839Z,998.36
2017-11-24T07:00:05.956Z,998.37
2017-11-24T07:00:46.738Z,998.38
2017-11-24T07:01:27.510Z,998.35
2017-11-24T07:02:09.203Z,998.3
2017-11-24T07:02:49.693Z,998.32
2017-11-24T07:03:30.265Z,998.27
2017-11-24T07:04:10.850Z,998.25
2017-11-24T07:04:51.360Z,998.28
2017-11-24T07:05:32.094Z,998.26
2017-11-24T07:06:12.451Z,998.27
2017-11-24T07:06:52.996Z,998.25
2017-11-24T07:07:34.214Z,998.26
2017-11-24T07:08:14.905Z,998.29
2017-11-24T07:08:55.407Z,998.32
2017-11-24T07:09:36.015Z,998.27
2017-11-24T07:10:16.488Z,998.28
2017-11-24T07:10:57.051Z,998.29
2017-11-24T07:11:37.822Z,998.24
2017-11-24T07:12:18.383Z,998.29
2017-11-24T07:12:58.859Z,998.31
2017-11-24T07:13:39.445Z,998.28
2017-11-24T07:14:20.014Z,998.32
2017-11-24T07:15:00.647Z,998.31
2017-11-24T07:15:41.197Z,998.34
2017-11-24T07:16:21.793Z,998.34
2017-11-24T07:17:02.416Z,998.35
2017-11-24T07:17:43.211Z,998.28
2017-11-24T07:18:23.740Z,998.3
2017-11-24T07:19:04.277Z,998.29
2017-11-24T07:19:44.816Z,998.38
2017-11-24T07:20:25.341Z,998.37
2017-11-24T07:21:05.896Z,998.31
2017-11-24T07:21:46.642Z,998.33
2017-11-24T07:22:27.142Z,998.34
2017-11-24T07:23:07.846Z,998.38
2017-11-24T07:23:49.008Z,998.38
2017-11-24T07:24:29.594Z,998.37
2017-11-24T07:25:10.127Z,998.38
2017-11-24T07:25:50.818Z,998.34
2017-11-24T07:26:31.517Z,998.37
2017-11-24T07:27:12.134Z,998.41
2017-11-24T07:27:52.711Z,998.38
2017-11-24T07:28:33.507Z,998.38
2017-11-24T07:29:14.116Z,998.45
2017-11-24T07:29:54.975Z,998.42
2017-11-24T07:30:35.670Z,998.46
2017-11-24T07:31:16.209Z,998.44
2017-11-24T07:31:56.806Z,998.42
2017-11-24T07:32:37.429Z,998.43
2017-11-24T07:33:18.079Z,998.43
2017-11-24T07:33:58.755Z,998.45
2017-11-24T07:34:39.292Z,998.42
2017-11-24T07:35:19.851Z,998.45
2017-11-24T07:36:00.637Z,998.49
2017-11-24T07:36:41.157Z,998.46
2017-11-24T07:37:21.781Z,998.45
2017-11-24T07:38:02.285Z,998.48
2017-11-24T07:38:42.980Z,998.48
2017-11-24T07:39:23.941Z,998.43
2017-11-24T07:40:04.650Z,998.48
2017-11-24T07:40:45.230Z,998.41
2017-11-24T07:41:25.817Z,998.42
2017-11-24T07:42:06.454Z,998.38
2017-11-24T07:42:46.956Z,998.38
2017-11-24T07:43:27.505Z,998.36
2017-11-24T07:44:08.127Z,998.36
2017-11-24T07:44:48.671Z,998.4
2017-11-24T07:45:29.933Z,998.38
2017-11-24T07:46:10.877Z,998.38
2017-11-24T07:46:51.415Z,998.38
2017-11-24T07:47:31.939Z,998.37
2017-11-24T07:48:12.860Z,998.35
2017-11-24T07:48:53.406Z,998.34
2017-11-24T07:49:34.227Z,998.34
2017-11-24T07:50:14.719Z,998.38
2017-11-24T07:50:55.303Z,998.38
2017-11-24T07:51:35.960Z,998.36
2017-11-24T07:52:16.454Z,998.37
2017-11-24T07:52:57.208Z,998.34
2017-11-24T07:53:37.770Z,998.39
2017-11-24T07:54:18.385Z,998.38
2017-11-24T07:54:58.998Z,998.41
2017-11-24T07:55:39.576Z,998.38
2017-11-24T07:56:20.352Z,998.42
2017-11-24T07:57:00.995Z,998.35
2017-11-24T07:57:41.682Z,998.39
2017-11-24T07:58:22.297Z,998.37
2017-11-24T07:59:03.076Z,998.33
2017-11-24T07:59:44.283Z,998.34
2017-11-24T08:00:25.979Z,998.38
2017-11-24T08:01:06.667Z,998.3
2017-11-24T08:01:47.107Z,998.33
2017-11-24T08:02:27.669Z,998.3
2017-11-24T08:03:08.594Z,998.35
2017-11-24T08:03:48.843Z,998.29
2017-11-24T08:04:29.399Z,998.31
2017-11-24T08:05:10.007Z,998.3
2017-11-24T08:05:50.780Z,998.37
2017-11-24T08:06:31.120Z,998.33
2017-11-24T08:07:12.045Z,998.31
2017-11-24T08:07:53.304Z,998.31
2017-11-24T08:08:34.486Z,998.33
2017-11-24T08:09:15.423Z,998.32
2017-11-24T08:09:56.317Z,998.31
2017-11-24T08:10:37.025Z,998.31
2017-11-24T08:11:17.689Z,998.35
2017-11-24T08:11:58.500Z,998.45
2017-11-24T08:12:40.847Z,998.36
2017-11-24T08:13:22.766Z,998.38
2017-11-24T08:14:03.432Z,998.35
2017-11-24T08:14:44.064Z,998.32
2017-11-24T08:15:24.520Z,998.33
2017-11-24T08:16:09.540Z,998.36
2017-11-24T08:16:50.123Z,998.38
2017-11-24T08:17:31.017Z,998.36
2017-11-24T08:18:13.853Z,998.33
2017-11-24T08:18:55.356Z,998.41
2017-11-24T08:19:36.620Z,998.37
2017-11-24T08:20:17.430Z,998.38
2017-11-24T08:20:57.959Z,998.41
2017-11-24T08:21:40.498Z,998.41
2017-11-24T08:22:21.191Z,998.39
2017-11-24T08:23:02.441Z,998.41
2017-11-24T08:23:43.519Z,998.38
2017-11-24T08:24:24.195Z,998.36
2017-11-24T08:25:04.641Z,998.36
2017-11-24T08:25:46.365Z,998.43
2017-11-24T08:26:28.196Z,998.4
2017-11-24T08:27:09.166Z,998.37
2017-11-24T08:27:49.820Z,998.43
2017-11-24T08:28:30.400Z,998.37
2017-11-24T08:29:11.334Z,998.43
2017-11-24T08:29:52.059Z,998.38